createdAt,value
2023-09-19T00:00:54.740Z,47.9
2023-09-19T00:05:57.983Z,48
2023-09-19T00:10:57.959Z,48.5
2023-09-19T00:15:58.286Z,47.7
2023-09-19T00:20:58.492Z,48.3
2023-09-19T00:26:01.607Z,48.3
2023-09-19T00:31:01.733Z,48.4
2023-09-19T00:36:01.955Z,48.4
2023-09-19T00:41:02.360Z,48.6
2023-09-19T00:46:02.537Z,48.7
2023-09-19T00:51:02.835Z,48.9
2023-09-19T00:56:03.050Z,48.5
2023-09-19T01:01:03.283Z,49.1
2023-09-19T01:06:02.322Z,49.2
2023-09-19T01:11:05.783Z,49.2
2023-09-19T01:16:08.436Z,49.2
2023-09-19T01:21:10.782Z,49.5
2023-09-19T01:26:13.309Z,49.5
2023-09-19T01:31:16.955Z,49.6
2023-09-19T01:36:16.852Z,49.4
2023-09-19T01:41:17.346Z,49.5
2023-09-19T01:46:17.423Z,49.4
2023-09-19T01:51:18.264Z,49.7
2023-09-19T01:56:18.701Z,49.7
2023-09-19T02:01:19.266Z,49.4
2023-09-19T02:06:19.496Z,49.5
2023-09-19T02:11:19.809Z,50.1
2023-09-19T02:16:20.118Z,50.2
2023-09-19T02:21:23.328Z,49.9
2023-09-19T02:26:26.108Z,49.6
2023-09-19T02:31:25.973Z,50.1
2023-09-19T02:36:26.167Z,49.4
2023-09-19T02:41:26.747Z,49.6
2023-09-19T02:46:27.233Z,49.9
2023-09-19T02:51:30.353Z,50
2023-09-19T02:56:30.534Z,50.1
2023-09-19T03:01:30.846Z,50.5
2023-09-19T03:06:31.241Z,50.4
2023-09-19T03:11:32.061Z,50.6
2023-09-19T03:16:34.880Z,50.9
2023-09-19T03:21:35.160Z,50.9
2023-09-19T03:26:37.470Z,50.9
2023-09-19T03:31:37.650Z,51.1
2023-09-19T03:36:37.783Z,51.1
2023-09-19T03:41:38.151Z,51.2
2023-09-19T03:46:38.709Z,51.5
2023-09-19T03:51:39.231Z,51.4
2023-09-19T03:56:39.612Z,51.3
2023-09-19T04:01:40.076Z,51.6
2023-09-19T04:06:43.330Z,51.6
2023-09-19T04:11:46.004Z,51.6
2023-09-19T04:16:46.102Z,51.4
2023-09-19T04:21:46.371Z,51.8
2023-09-19T04:26:48.792Z,52.1
2023-09-19T04:31:48.840Z,51.6
2023-09-19T04:36:49.325Z,51.4
2023-09-19T04:41:49.854Z,50.8
2023-09-19T04:46:52.959Z,50.9
2023-09-19T04:51:52.904Z,51.1
2023-09-19T04:56:53.534Z,50.8
2023-09-19T05:01:54.154Z,50.5
2023-09-19T05:06:54.865Z,50.2
2023-09-19T05:11:55.695Z,49.8
2023-09-19T05:16:56.185Z,49.7
2023-09-19T05:21:56.845Z,49.4
2023-09-19T05:26:57.720Z,49.3
2023-09-19T05:31:57.110Z,49.3
2023-09-19T05:37:00.541Z,49.3
2023-09-19T05:42:03.390Z,48.9
2023-09-19T05:47:06.207Z,49.2
2023-09-19T05:52:06.125Z,48.8
2023-09-19T05:57:06.434Z,48.3
2023-09-19T06:02:09.793Z,48.4
2023-09-19T06:07:12.509Z,48.4
2023-09-19T06:12:15.895Z,48.1
2023-09-19T06:17:16.081Z,48.4
2023-09-19T06:22:16.514Z,48.1
2023-09-19T06:27:17.062Z,48.3
2023-09-19T06:32:17.600Z,48.2
2023-09-19T06:37:18.288Z,48
2023-09-19T06:42:20.437Z,47.9
2023-09-19T06:47:21.834Z,47.9
2023-09-19T06:52:22.456Z,47.8
2023-09-19T06:57:23.264Z,48.2
2023-09-19T07:02:23.842Z,47.8
2023-09-19T07:07:24.023Z,47.8
2023-09-19T07:12:24.613Z,47.5
2023-09-19T07:17:24.929Z,47.5
2023-09-19T07:22:25.436Z,47.7
2023-09-19T07:27:25.891Z,47.7
2023-09-19T07:32:26.423Z,47.6
2023-09-19T07:37:27.161Z,47.4
2023-09-19T07:42:30.125Z,47.2
2023-09-19T07:47:30.099Z,47
2023-09-19T07:52:30.590Z,47.3
2023-09-19T07:57:30.946Z,47.6
2023-09-19T08:02:34.205Z,47.6
2023-09-19T08:07:34.215Z,47.1
2023-09-19T08:12:34.386Z,47.5
2023-09-19T08:17:35.078Z,47.5
2023-09-19T08:22:35.305Z,47.4
2023-09-19T08:27:38.510Z,47.3
2023-09-19T08:32:38.173Z,46.9
2023-09-19T08:37:38.594Z,47.5
2023-09-19T08:42:41.692Z,47.5
2023-09-19T08:47:41.434Z,47.3
2023-09-19T08:52:41.639Z,47.2
2023-09-19T08:57:44.831Z,47.1
2023-09-19T09:02:44.694Z,46.9
2023-09-19T09:07:47.678Z,47.2
2023-09-19T09:12:47.480Z,47
2023-09-19T09:17:48.019Z,47.1
2023-09-19T09:22:48.216Z,47
2023-09-19T09:27:51.257Z,47.4
2023-09-19T09:33:08.392Z,47.1
2023-09-19T09:37:51.780Z,47
2023-09-19T09:42:52.257Z,47.1
2023-09-19T09:47:52.665Z,46.8
2023-09-19T09:52:52.833Z,47
2023-09-19T09:57:55.850Z,47.2
2023-09-19T10:02:58.632Z,47
2023-09-19T10:07:58.434Z,46.9
2023-09-19T10:12:58.713Z,46.8
2023-09-19T10:17:59.240Z,46.8
2023-09-19T10:22:59.501Z,47.4
2023-09-19T10:28:02.415Z,46.6
2023-09-19T10:33:02.126Z,46.9
2023-09-19T10:38:02.685Z,47.2
2023-09-19T10:43:02.739Z,46.8
2023-09-19T10:48:02.945Z,47.1
2023-09-19T10:53:08.524Z,47.3
2023-09-19T10:58:06.169Z,46.8
2023-09-19T11:03:06.435Z,46.6
2023-09-19T11:08:05.719Z,46.8
2023-09-19T11:13:06.386Z,47.2
2023-09-19T11:18:06.549Z,47.1
2023-09-19T11:23:06.909Z,46.7
2023-09-19T11:28:10.141Z,46.7
2023-09-19T11:33:12.807Z,47.3
2023-09-19T11:38:12.801Z,47.2
2023-09-19T11:43:13.346Z,47.3
2023-09-19T11:48:13.774Z,47.4
2023-09-19T11:53:14.132Z,47.5
2023-09-19T11:58:17.049Z,47
2023-09-19T12:03:17.239Z,47
2023-09-19T12:08:17.624Z,47.7
2023-09-19T12:13:20.732Z,47.6
2023-09-19T12:18:23.422Z,47.6
2023-09-19T12:23:26.306Z,47.1
2023-09-19T12:28:29.053Z,47.4
2023-09-19T12:33:28.819Z,47.2
2023-09-19T12:38:29.186Z,47.3
2023-09-19T12:43:29.833Z,46.8
2023-09-19T12:48:30.134Z,47.1
2023-09-19T12:53:30.735Z,46.7
2023-09-19T12:58:30.961Z,47.2
2023-09-19T13:03:31.548Z,47.2
2023-09-19T13:08:31.980Z,47.2
2023-09-19T13:13:34.899Z,47.7
2023-09-19T13:18:37.571Z,47.1
2023-09-19T13:23:40.498Z,47.2
2023-09-19T13:28:42.972Z,47.5
2023-09-19T13:33:42.550Z,47.9
2023-09-19T13:38:43.453Z,47.8
2023-09-19T13:43:43.874Z,47.4
2023-09-19T13:48:44.118Z,47.7
2023-09-19T13:53:47.482Z,47.7
2023-09-19T13:58:51.128Z,47.4
2023-09-19T14:03:51.686Z,47.5
2023-09-19T14:08:55.103Z,47.7
2023-09-19T14:13:56.605Z,47.9
2023-09-19T14:18:55.141Z,47.8
2023-09-19T14:23:55.405Z,47.6
2023-09-19T14:28:56.635Z,47.2
2023-09-19T14:33:56.810Z,47.3
2023-09-19T14:38:57.178Z,46.6
2023-09-19T14:44:00.784Z,47.2
2023-09-19T14:49:00.535Z,47.2
2023-09-19T14:54:01.786Z,47
2023-09-19T14:59:02.089Z,47
2023-09-19T15:04:02.651Z,47.1
2023-09-19T15:09:02.602Z,47.1
2023-09-19T15:14:02.913Z,47.1
2023-09-19T15:19:06.914Z,47.1
2023-09-19T15:24:07.218Z,47
2023-09-19T15:29:07.607Z,47
2023-09-19T15:34:10.166Z,47.2
2023-09-19T15:39:10.035Z,47.2
2023-09-19T15:44:10.390Z,47.3
2023-09-19T15:49:13.289Z,47.2
2023-09-19T15:54:13.070Z,47.6
2023-09-19T15:59:13.764Z,47.8
2023-09-19T16:04:16.733Z,47.7
2023-09-19T16:09:19.352Z,47.8
2023-09-19T16:14:21.906Z,48.1
2023-09-19T16:19:21.917Z,48.1
2023-09-19T16:24:22.577Z,48
2023-09-19T16:29:23.181Z,48.3
2023-09-19T16:34:23.613Z,48.3
2023-09-19T16:39:24.035Z,48.5
2023-09-19T16:44:24.500Z,48.6
2023-09-19T16:49:24.923Z,48.8
2023-09-19T16:54:25.571Z,48.9
2023-09-19T16:59:28.251Z,48.8
2023-09-19T17:04:28.152Z,49
2023-09-19T17:09:28.579Z,48.6
2023-09-19T17:14:29.241Z,48.8
2023-09-19T17:19:29.688Z,48.6
2023-09-19T17:24:31.275Z,48.6
2023-09-19T17:29:31.545Z,48.7
2023-09-19T17:34:32.066Z,49.1
2023-09-19T17:39:32.575Z,49.6
2023-09-19T17:44:32.948Z,49.8
2023-09-19T17:49:33.226Z,49.8
2023-09-19T17:54:34.627Z,49.3
2023-09-19T17:59:37.717Z,49.4
2023-09-19T18:04:40.614Z,49.8
2023-09-19T18:09:40.496Z,49.7
2023-09-19T18:14:43.794Z,50.1
2023-09-19T18:19:43.630Z,50.3
2023-09-19T18:24:43.992Z,50.5
2023-09-19T18:29:44.252Z,50.8
2023-09-19T18:34:44.558Z,50.9
2023-09-19T18:39:44.970Z,50.7
2023-09-19T18:44:46.003Z,50.7
2023-09-19T18:49:49.051Z,50.8
2023-09-19T18:54:49.052Z,50.5
2023-09-19T18:59:49.507Z,50.1
2023-09-19T19:04:52.507Z,50.3
2023-09-19T19:09:55.228Z,50.1
2023-09-19T19:14:57.770Z,50.1
2023-09-19T19:20:00.485Z,50.1
2023-09-19T19:25:02.331Z,50.2
2023-09-19T19:30:02.425Z,50.4
2023-09-19T19:35:02.969Z,50.1
2023-09-19T19:40:03.546Z,50.2
2023-09-19T19:45:03.936Z,50.1
2023-09-19T19:50:04.390Z,49.7
2023-09-19T19:55:09.450Z,50
2023-09-19T20:00:09.302Z,49.7
2023-09-19T20:05:10.066Z,49.6
2023-09-19T20:10:10.657Z,49.5
2023-09-19T20:15:13.514Z,49.4
2023-09-19T20:20:13.614Z,49.3
2023-09-19T20:25:16.617Z,49.4
2023-09-19T20:30:19.353Z,50
2023-09-19T20:35:19.193Z,51.1
2023-09-19T20:40:21.326Z,52.2
2023-09-19T20:45:25.754Z,52.6
2023-09-19T20:50:25.282Z,53.3
2023-09-19T20:55:25.811Z,53.9
2023-09-19T21:00:26.343Z,54.1
2023-09-19T21:05:26.833Z,54.9
2023-09-19T21:10:27.167Z,55.3
2023-09-19T21:15:27.495Z,56.2
2023-09-19T21:20:27.769Z,56.6
2023-09-19T21:25:27.968Z,56.6
2023-09-19T21:30:28.330Z,57.2
2023-09-19T21:35:31.257Z,57.1
2023-09-19T21:40:33.905Z,57
2023-09-19T21:45:33.834Z,56.8
2023-09-19T21:50:33.949Z,56.7
2023-09-19T21:55:34.462Z,57
2023-09-19T22:00:34.798Z,56.7
2023-09-19T22:05:35.315Z,57.1
2023-09-19T22:10:38.375Z,57
2023-09-19T22:15:40.887Z,56.9
2023-09-19T22:20:40.969Z,56.8
2023-09-19T22:25:41.412Z,56.7
2023-09-19T22:30:41.741Z,56.7
2023-09-19T22:35:42.070Z,56.8
2023-09-19T22:40:42.469Z,56.8
2023-09-19T22:45:43.011Z,56.8
2023-09-19T22:50:43.318Z,56.8
2023-09-19T22:55:43.277Z,56.6
2023-09-19T23:00:46.608Z,56.6
2023-09-19T23:05:46.440Z,57
2023-09-19T23:10:46.438Z,57.1
2023-09-19T23:15:49.683Z,57.4
2023-09-19T23:20:49.635Z,57.4
2023-09-19T23:25:52.777Z,57.4
2023-09-19T23:30:55.368Z,57.2
2023-09-19T23:35:59.079Z,57.6
2023-09-19T23:40:58.845Z,57.9
2023-09-19T23:46:01.800Z,58.3
2023-09-19T23:51:01.768Z,58.3
2023-09-19T23:56:01.989Z,58.2
